createdAt,value
2023-05-10T00:00:58.625Z,35.20
2023-05-10T00:01:58.752Z,35.34
2023-05-10T00:02:58.799Z,35.34
2023-05-10T00:03:58.915Z,35.33
2023-05-10T00:04:58.866Z,35.44
2023-05-10T00:05:59.070Z,35.33
2023-05-10T00:06:59.013Z,35.26
2023-05-10T00:07:59.037Z,35.25
2023-05-10T00:08:59.117Z,35.19
2023-05-10T00:09:59.162Z,35.31
2023-05-10T00:10:59.217Z,35.21
2023-05-10T00:11:59.410Z,35.23
2023-05-10T00:12:59.387Z,35.35
2023-05-10T00:13:59.421Z,35.18
2023-05-10T00:14:59.466Z,35.23
2023-05-10T00:15:59.660Z,35.16
2023-05-10T00:16:59.605Z,35.31
2023-05-10T00:17:59.698Z,35.45
2023-05-10T00:18:59.708Z,35.39
2023-05-10T00:19:59.756Z,35.33
2023-05-10T00:20:59.841Z,35.34
2023-05-10T00:22:00.006Z,35.35
2023-05-10T00:23:00.024Z,35.38
2023-05-10T00:24:00.042Z,35.39
2023-05-10T00:25:00.089Z,35.41
2023-05-10T00:26:00.166Z,35.47
2023-05-10T00:27:00.242Z,35.38
2023-05-10T00:28:00.403Z,35.31
2023-05-10T00:29:00.345Z,35.36
2023-05-10T00:30:00.394Z,35.43
2023-05-10T00:31:00.478Z,35.41
2023-05-10T00:32:00.537Z,35.44
2023-05-10T00:33:00.590Z,35.48
2023-05-10T00:34:00.647Z,35.47
2023-05-10T00:35:00.691Z,35.41
2023-05-10T00:36:00.862Z,35.41
2023-05-10T00:37:00.994Z,35.46
2023-05-10T00:38:00.863Z,35.57
2023-05-10T00:39:00.930Z,35.52
2023-05-10T00:40:00.984Z,35.58
2023-05-10T00:41:01.052Z,35.56
2023-05-10T00:42:01.121Z,35.58
2023-05-10T00:43:01.186Z,35.57
2023-05-10T00:44:01.257Z,35.53
2023-05-10T00:45:01.255Z,35.51
2023-05-10T00:46:01.372Z,35.53
2023-05-10T00:47:01.436Z,35.49
2023-05-10T00:48:01.458Z,35.57
2023-05-10T00:49:01.477Z,35.60
2023-05-10T00:50:01.531Z,35.50
2023-05-10T00:51:01.610Z,35.55
2023-05-10T00:52:01.656Z,35.58
2023-05-10T00:53:01.650Z,35.62
2023-05-10T00:54:01.688Z,35.65
2023-05-10T00:55:01.705Z,35.58
2023-05-10T00:56:01.725Z,35.55
2023-05-10T00:57:01.745Z,35.58
2023-05-10T00:58:01.784Z,35.68
2023-05-10T00:59:01.774Z,35.49
2023-05-10T01:00:01.800Z,35.57
2023-05-10T01:01:01.867Z,35.54
2023-05-10T01:02:01.877Z,35.49
2023-05-10T01:03:02.051Z,35.60
2023-05-10T01:04:02.047Z,35.55
2023-05-10T01:05:01.960Z,35.53
2023-05-10T01:06:01.945Z,35.51
2023-05-10T01:07:01.946Z,35.58
2023-05-10T01:08:02.002Z,35.53
2023-05-10T01:09:02.022Z,35.47
2023-05-10T01:10:02.210Z,35.64
2023-05-10T01:11:02.128Z,35.68
2023-05-10T01:12:02.204Z,35.66
2023-05-10T01:13:02.236Z,35.50
2023-05-10T01:14:02.285Z,35.62
2023-05-10T01:15:02.203Z,35.62
2023-05-10T01:16:02.351Z,35.71
2023-05-10T01:17:02.300Z,35.56
2023-05-10T01:18:02.262Z,35.71
2023-05-10T01:19:02.296Z,35.64
2023-05-10T01:20:02.379Z,35.63
2023-05-10T01:21:02.354Z,35.63
2023-05-10T01:22:02.409Z,35.57
2023-05-10T01:23:02.426Z,35.59
2023-05-10T01:24:02.449Z,35.63
2023-05-10T01:25:02.517Z,35.59
2023-05-10T01:26:02.539Z,35.59
2023-05-10T01:27:02.553Z,35.71
2023-05-10T01:28:02.582Z,35.76
2023-05-10T01:29:02.648Z,35.73
2023-05-10T01:30:21.746Z,35.72
2023-05-10T01:31:03.659Z,35.72
2023-05-10T01:32:02.639Z,35.72
2023-05-10T01:33:02.796Z,35.69
2023-05-10T01:34:02.657Z,35.67
2023-05-10T01:35:02.617Z,35.62
2023-05-10T01:36:02.642Z,35.69
2023-05-10T01:37:02.612Z,35.67
2023-05-10T01:38:02.604Z,35.57
2023-05-10T01:39:02.593Z,35.60
2023-05-10T01:40:02.582Z,35.57
2023-05-10T01:41:02.612Z,35.72
2023-05-10T01:42:02.720Z,35.65
2023-05-10T01:43:02.689Z,35.67
2023-05-10T01:44:02.698Z,35.67
2023-05-10T01:45:02.737Z,35.60
2023-05-10T01:46:02.779Z,35.64
2023-05-10T01:47:02.883Z,35.71
2023-05-10T01:48:02.860Z,35.64
2023-05-10T01:49:02.921Z,35.65
2023-05-10T01:50:02.921Z,35.64
2023-05-10T01:51:02.947Z,35.68
2023-05-10T01:52:02.961Z,35.65
2023-05-10T01:53:02.976Z,35.64
2023-05-10T01:54:03.141Z,35.69
2023-05-10T01:55:03.050Z,35.69
2023-05-10T01:56:03.080Z,35.65
2023-05-10T01:57:03.072Z,35.73
2023-05-10T01:58:03.098Z,35.66
2023-05-10T01:59:03.122Z,35.62
2023-05-10T02:00:03.174Z,35.68
2023-05-10T02:01:03.262Z,35.61
2023-05-10T02:02:03.241Z,35.60
2023-05-10T02:03:03.310Z,35.62
2023-05-10T02:04:03.305Z,35.69
2023-05-10T02:05:03.325Z,35.64
2023-05-10T02:06:03.360Z,35.65
2023-05-10T02:07:03.378Z,35.64
2023-05-10T02:08:03.407Z,35.61
2023-05-10T02:09:03.453Z,35.68
2023-05-10T02:10:03.480Z,35.64
2023-05-10T02:11:03.614Z,35.60
2023-05-10T02:12:03.559Z,35.66
2023-05-10T02:13:03.568Z,35.65
2023-05-10T02:14:03.552Z,35.65
2023-05-10T02:15:03.542Z,35.65
2023-05-10T02:16:03.551Z,35.60
2023-05-10T02:17:03.614Z,35.66
2023-05-10T02:18:03.632Z,35.64
2023-05-10T02:19:03.616Z,35.65
2023-05-10T02:20:03.579Z,35.66
2023-05-10T02:21:03.600Z,35.64
2023-05-10T02:22:03.683Z,35.66
2023-05-10T02:23:03.689Z,35.68
2023-05-10T02:24:03.728Z,35.65
2023-05-10T02:25:03.727Z,35.64
2023-05-10T02:26:03.764Z,35.65
2023-05-10T02:27:03.784Z,35.60
2023-05-10T02:28:03.823Z,35.61
2023-05-10T02:29:03.873Z,35.61
2023-05-10T02:30:03.914Z,35.63
2023-05-10T02:31:03.941Z,35.64
2023-05-10T02:32:04.005Z,35.58
2023-05-10T02:33:04.051Z,35.62
2023-05-10T02:34:04.041Z,35.58
2023-05-10T02:35:04.055Z,35.57
2023-05-10T02:36:04.118Z,35.61
2023-05-10T02:37:04.125Z,35.59
2023-05-10T02:38:04.126Z,35.62
2023-05-10T02:39:04.166Z,35.63
2023-05-10T02:40:04.225Z,35.61
2023-05-10T02:41:04.258Z,35.62
2023-05-10T02:42:04.195Z,35.62
2023-05-10T02:43:04.193Z,35.58
2023-05-10T02:44:04.221Z,35.55
2023-05-10T02:45:04.243Z,35.61
2023-05-10T02:46:04.273Z,35.55
2023-05-10T02:47:04.264Z,35.50
2023-05-10T02:48:04.297Z,35.53
2023-05-10T02:49:04.327Z,35.53
2023-05-10T02:50:04.387Z,35.55
2023-05-10T02:51:04.344Z,35.53
2023-05-10T02:52:04.351Z,35.57
2023-05-10T02:53:04.482Z,35.50
2023-05-10T02:54:04.393Z,35.52
2023-05-10T02:55:04.394Z,35.55
2023-05-10T02:56:04.411Z,35.58
2023-05-10T02:57:04.446Z,35.57
2023-05-10T02:58:04.465Z,35.54
2023-05-10T02:59:04.515Z,35.59
2023-05-10T03:00:04.536Z,35.52
2023-05-10T03:01:04.606Z,35.58
2023-05-10T03:02:04.613Z,35.56
2023-05-10T03:03:04.685Z,35.57
2023-05-10T03:04:04.747Z,35.53
2023-05-10T03:05:04.700Z,35.63
2023-05-10T03:06:04.728Z,35.58
2023-05-10T03:07:04.731Z,35.54
2023-05-10T03:08:04.724Z,35.57
2023-05-10T03:09:04.737Z,35.58
2023-05-10T03:10:04.751Z,35.49
2023-05-10T03:11:04.736Z,35.61
2023-05-10T03:12:04.783Z,35.49
2023-05-10T03:13:04.776Z,35.47
2023-05-10T03:14:04.726Z,35.49
2023-05-10T03:15:04.731Z,35.49
2023-05-10T03:16:04.830Z,35.46
2023-05-10T03:17:04.840Z,35.57
2023-05-10T03:18:04.793Z,35.50
2023-05-10T03:19:04.782Z,35.50
2023-05-10T03:20:04.790Z,35.52
2023-05-10T03:21:04.804Z,35.49
2023-05-10T03:22:04.847Z,35.47
2023-05-10T03:23:04.850Z,35.49
2023-05-10T03:24:04.836Z,35.49
2023-05-10T03:25:04.830Z,35.49
2023-05-10T03:26:04.935Z,35.49
2023-05-10T03:27:04.801Z,35.46
2023-05-10T03:28:04.796Z,35.47
2023-05-10T03:29:04.825Z,35.44
2023-05-10T03:30:04.791Z,35.50
2023-05-10T03:31:04.814Z,35.44
2023-05-10T03:32:04.826Z,35.42
2023-05-10T03:33:04.913Z,35.37
2023-05-10T03:34:04.937Z,35.39
2023-05-10T03:35:04.946Z,35.44
2023-05-10T03:36:04.992Z,35.43
2023-05-10T03:37:05.038Z,35.46
2023-05-10T03:38:05.071Z,35.47
2023-05-10T03:39:05.105Z,35.50
2023-05-10T03:40:05.098Z,35.43
2023-05-10T03:41:05.146Z,35.49
2023-05-10T03:42:05.107Z,35.49
2023-05-10T03:43:05.113Z,35.49
2023-05-10T03:44:05.100Z,35.49
2023-05-10T03:45:05.119Z,35.51
2023-05-10T03:46:05.121Z,35.51
2023-05-10T03:47:05.137Z,35.49
2023-05-10T03:48:05.147Z,35.48
2023-05-10T03:49:05.122Z,35.40
2023-05-10T03:50:05.128Z,35.47
2023-05-10T03:51:05.152Z,35.40
2023-05-10T03:52:05.294Z,35.42
2023-05-10T03:53:05.187Z,35.43
2023-05-10T03:54:05.203Z,35.40
2023-05-10T03:55:05.204Z,35.38
2023-05-10T03:56:05.198Z,35.42
2023-05-10T03:57:05.202Z,35.38
2023-05-10T03:58:05.216Z,35.35
2023-05-10T03:59:05.226Z,35.40
2023-05-10T04:00:05.251Z,35.38
2023-05-10T04:01:05.284Z,35.39
2023-05-10T04:02:05.398Z,35.38
2023-05-10T04:03:05.401Z,35.38
2023-05-10T04:04:05.460Z,35.36
2023-05-10T04:05:05.456Z,35.34
2023-05-10T04:06:05.496Z,35.33
2023-05-10T04:07:05.533Z,35.35
2023-05-10T04:08:05.554Z,35.33
2023-05-10T04:09:05.622Z,35.29
2023-05-10T04:10:05.648Z,35.33
2023-05-10T04:11:05.695Z,35.31
2023-05-10T04:12:05.749Z,35.34
2023-05-10T04:13:05.799Z,35.35
2023-05-10T04:14:05.825Z,35.31
2023-05-10T04:15:05.880Z,35.30
2023-05-10T04:16:05.925Z,35.32
2023-05-10T04:17:06.045Z,35.26
2023-05-10T04:18:07.993Z,35.29
2023-05-10T04:19:06.084Z,35.28
2023-05-10T04:20:05.951Z,35.24
2023-05-10T04:21:06.012Z,35.21
2023-05-10T04:22:05.962Z,35.30
2023-05-10T04:23:05.946Z,35.22
2023-05-10T04:24:05.930Z,35.22
2023-05-10T04:25:05.934Z,35.26
2023-05-10T04:26:05.907Z,35.22
2023-05-10T04:27:05.914Z,35.23
2023-05-10T04:28:06.012Z,35.21
2023-05-10T04:29:05.907Z,35.25
2023-05-10T04:30:05.900Z,35.18
2023-05-10T04:31:05.990Z,35.17
2023-05-10T04:32:05.880Z,35.15
2023-05-10T04:33:05.929Z,35.19
2023-05-10T04:34:05.922Z,35.17
2023-05-10T04:35:05.944Z,35.16
2023-05-10T04:36:05.848Z,35.18
2023-05-10T04:37:05.857Z,35.14
2023-05-10T04:38:05.843Z,35.16
2023-05-10T04:39:05.828Z,35.17
2023-05-10T04:40:05.823Z,35.15
2023-05-10T04:41:05.834Z,35.13
2023-05-10T04:42:05.821Z,35.15
2023-05-10T04:43:05.802Z,35.18
2023-05-10T04:44:05.927Z,35.15
2023-05-10T04:45:05.781Z,35.12
2023-05-10T04:46:05.886Z,35.17
2023-05-10T04:47:05.762Z,35.17
2023-05-10T04:48:05.815Z,35.14
2023-05-10T04:49:05.778Z,35.18
2023-05-10T04:50:05.761Z,35.19
2023-05-10T04:51:05.824Z,35.19
2023-05-10T04:52:05.732Z,35.15
2023-05-10T04:53:05.752Z,35.22
2023-05-10T04:54:06.802Z,35.17
2023-05-10T04:55:05.728Z,35.19
2023-05-10T04:56:05.717Z,35.19
2023-05-10T04:57:05.727Z,35.18
2023-05-10T04:58:05.712Z,35.22
2023-05-10T04:59:05.728Z,35.24
2023-05-10T05:00:05.703Z,35.18
2023-05-10T05:01:05.699Z,35.19
2023-05-10T05:02:05.823Z,35.19
2023-05-10T05:03:05.712Z,35.17
2023-05-10T05:04:05.662Z,35.24
2023-05-10T05:05:05.651Z,35.21
2023-05-10T05:06:05.649Z,35.23
2023-05-10T05:07:05.655Z,35.24
2023-05-10T05:08:05.629Z,35.27
2023-05-10T05:09:05.638Z,35.27
2023-05-10T05:10:05.621Z,35.26
2023-05-10T05:11:05.625Z,35.26
2023-05-10T05:12:05.631Z,35.24
2023-05-10T05:13:05.647Z,35.23
2023-05-10T05:14:05.629Z,35.28
2023-05-10T05:15:07.223Z,35.23
2023-05-10T05:16:05.602Z,35.28
2023-05-10T05:17:05.590Z,35.30
2023-05-10T05:18:05.614Z,35.30
2023-05-10T05:19:05.601Z,35.25
2023-05-10T05:20:05.568Z,35.27
2023-05-10T05:21:05.572Z,35.26
2023-05-10T05:22:05.557Z,35.26
2023-05-10T05:23:05.543Z,35.27
2023-05-10T05:24:05.721Z,35.31
2023-05-10T05:25:05.560Z,35.28
2023-05-10T05:26:05.510Z,35.24
2023-05-10T05:27:05.521Z,35.46
2023-05-10T05:28:05.516Z,35.60
2023-05-10T05:29:05.869Z,35.72
2023-05-10T05:30:05.490Z,35.77
2023-05-10T05:31:05.618Z,36.13
2023-05-10T05:32:05.525Z,36.45
2023-05-10T05:33:05.505Z,36.65
2023-05-10T05:34:05.479Z,37.00
2023-05-10T05:35:05.459Z,37.23
2023-05-10T05:36:05.670Z,37.44
2023-05-10T05:37:05.448Z,37.47
2023-05-10T05:38:05.427Z,38.33
2023-05-10T05:39:05.464Z,39.10
2023-05-10T05:40:05.592Z,39.50
2023-05-10T05:41:05.415Z,39.16
2023-05-10T05:42:05.446Z,38.75
2023-05-10T05:43:05.411Z,38.64
2023-05-10T05:44:05.386Z,38.66
2023-05-10T05:45:05.388Z,38.68
2023-05-10T05:46:05.443Z,38.80
2023-05-10T05:47:05.376Z,38.98
2023-05-10T05:48:05.399Z,39.15
2023-05-10T05:49:05.375Z,39.15
2023-05-10T05:50:05.357Z,39.28
2023-05-10T05:51:07.172Z,39.38
2023-05-10T05:52:05.354Z,39.61
2023-05-10T05:53:05.343Z,39.72
2023-05-10T05:54:05.322Z,40.07
2023-05-10T05:55:05.331Z,39.87
2023-05-10T05:56:05.346Z,40.17
2023-05-10T05:57:05.351Z,40.03
2023-05-10T05:58:05.316Z,39.81
2023-05-10T05:59:05.293Z,39.98
2023-05-10T06:00:05.292Z,39.76
2023-05-10T06:01:05.329Z,39.73
2023-05-10T06:02:05.412Z,39.59
2023-05-10T06:03:05.438Z,39.94
2023-05-10T06:04:05.515Z,39.60
2023-05-10T06:05:05.438Z,39.52
2023-05-10T06:06:05.485Z,39.38
2023-05-10T06:07:05.527Z,39.43
2023-05-10T06:08:05.596Z,39.45
2023-05-10T06:09:05.587Z,39.26
2023-05-10T06:10:05.640Z,39.42
2023-05-10T06:11:05.645Z,39.33
2023-05-10T06:12:05.695Z,39.38
2023-05-10T06:13:05.758Z,39.26
2023-05-10T06:14:05.752Z,39.31
2023-05-10T06:15:05.848Z,38.87
2023-05-10T06:16:05.819Z,39.03
2023-05-10T06:17:05.857Z,39.13
2023-05-10T06:18:06.016Z,39.15
2023-05-10T06:19:05.900Z,39.36
2023-05-10T06:20:06.354Z,39.39
2023-05-10T06:21:05.932Z,39.40
2023-05-10T06:22:05.950Z,39.41
2023-05-10T06:23:05.961Z,39.52
2023-05-10T06:24:06.020Z,39.46
2023-05-10T06:25:06.064Z,39.96
2023-05-10T06:26:06.123Z,40.04
2023-05-10T06:27:06.213Z,39.88
2023-05-10T06:28:06.262Z,40.19
2023-05-10T06:29:06.304Z,40.07
2023-05-10T06:30:12.791Z,39.83
2023-05-10T06:31:07.392Z,39.79
2023-05-10T06:32:06.380Z,40.02
2023-05-10T06:33:06.458Z,39.69
2023-05-10T06:34:06.415Z,39.60
2023-05-10T06:35:06.873Z,39.19
2023-05-10T06:36:06.480Z,39.27
2023-05-10T06:37:06.567Z,39.19
2023-05-10T06:38:06.574Z,39.11
2023-05-10T06:39:06.639Z,38.97
2023-05-10T06:40:06.839Z,38.19
2023-05-10T06:41:06.728Z,37.99
2023-05-10T06:42:06.760Z,37.68
2023-05-10T06:43:06.764Z,37.62
2023-05-10T06:44:06.821Z,37.93
2023-05-10T06:45:06.871Z,38.04
2023-05-10T06:46:06.951Z,38.50
2023-05-10T06:47:06.898Z,38.47
2023-05-10T06:48:06.947Z,38.71
2023-05-10T06:49:06.914Z,38.65
2023-05-10T06:50:06.935Z,38.46
2023-05-10T06:51:06.938Z,38.37
2023-05-10T06:52:06.927Z,38.49
2023-05-10T06:53:06.937Z,38.52
2023-05-10T06:54:06.965Z,38.89
2023-05-10T06:55:06.955Z,38.78
2023-05-10T06:56:06.948Z,38.70
2023-05-10T06:57:10.978Z,38.85
2023-05-10T06:58:07.984Z,39.10
2023-05-10T06:59:07.057Z,38.80
2023-05-10T07:00:07.059Z,38.66
2023-05-10T07:01:07.019Z,38.78
2023-05-10T07:02:06.991Z,38.72
2023-05-10T07:03:06.978Z,38.84
2023-05-10T07:04:06.946Z,38.81
2023-05-10T07:05:06.952Z,38.89
2023-05-10T07:06:07.175Z,38.97
2023-05-10T07:07:06.936Z,39.02
2023-05-10T07:08:06.897Z,39.20
2023-05-10T07:09:06.912Z,39.20
2023-05-10T07:10:06.898Z,39.23
2023-05-10T07:11:06.890Z,39.19
2023-05-10T07:12:08.223Z,39.25
2023-05-10T07:13:06.991Z,39.21
2023-05-10T07:14:06.857Z,39.26
2023-05-10T07:15:06.892Z,39.31
2023-05-10T07:16:06.900Z,39.33
2023-05-10T07:17:06.906Z,39.34
2023-05-10T07:18:06.973Z,39.38
2023-05-10T07:19:06.840Z,39.34
2023-05-10T07:20:06.823Z,39.42
2023-05-10T07:21:06.857Z,39.46
2023-05-10T07:22:06.801Z,39.50
2023-05-10T07:23:06.831Z,39.44
2023-05-10T07:24:06.808Z,39.41
2023-05-10T07:25:06.843Z,39.30
2023-05-10T07:26:06.789Z,39.25
2023-05-10T07:27:06.863Z,39.11
2023-05-10T07:28:06.786Z,38.88
2023-05-10T07:29:06.825Z,38.81
2023-05-10T07:30:06.770Z,38.48
2023-05-10T07:31:06.817Z,38.82
2023-05-10T07:32:06.957Z,38.75
2023-05-10T07:33:06.815Z,38.83
2023-05-10T07:34:06.751Z,38.39
2023-05-10T07:35:06.745Z,38.48
2023-05-10T07:36:06.719Z,38.55
2023-05-10T07:37:06.712Z,38.44
2023-05-10T07:38:06.739Z,38.38
2023-05-10T07:39:06.714Z,38.26
2023-05-10T07:40:06.707Z,38.08
2023-05-10T07:41:06.696Z,38.22
2023-05-10T07:42:06.700Z,38.26
2023-05-10T07:43:06.687Z,38.26
2023-05-10T07:44:06.696Z,38.23
2023-05-10T07:45:06.677Z,38.00
2023-05-10T07:46:06.702Z,38.04
2023-05-10T07:47:06.668Z,37.93
2023-05-10T07:48:06.703Z,37.44
2023-05-10T07:49:06.647Z,37.50
2023-05-10T07:50:06.880Z,37.67
2023-05-10T07:51:06.619Z,37.89
2023-05-10T07:52:06.626Z,37.75
2023-05-10T07:53:06.637Z,37.91
2023-05-10T07:54:06.599Z,38.05
2023-05-10T07:55:06.862Z,38.14
2023-05-10T07:56:06.602Z,37.79
2023-05-10T07:57:06.603Z,38.05
2023-05-10T07:58:06.590Z,37.96
2023-05-10T07:59:06.586Z,37.93
2023-05-10T08:00:06.885Z,38.07
2023-05-10T08:01:06.555Z,38.02
2023-05-10T08:02:06.580Z,38.10
2023-05-10T08:03:06.737Z,37.79
2023-05-10T08:04:06.654Z,37.85
2023-05-10T08:05:06.534Z,38.11
2023-05-10T08:06:06.671Z,37.94
2023-05-10T08:07:06.572Z,37.92
2023-05-10T08:08:06.509Z,38.02
2023-05-10T08:09:06.533Z,38.11
2023-05-10T08:10:06.510Z,38.00
2023-05-10T08:11:06.500Z,37.90
2023-05-10T08:12:06.513Z,38.18
2023-05-10T08:13:06.491Z,38.25
2023-05-10T08:14:06.668Z,38.35
2023-05-10T08:15:06.903Z,38.50
2023-05-10T08:16:06.487Z,38.46
2023-05-10T08:17:06.471Z,38.34
2023-05-10T08:18:06.535Z,38.38
2023-05-10T08:19:06.506Z,38.38
2023-05-10T08:20:06.894Z,38.39
2023-05-10T08:21:06.552Z,38.49
2023-05-10T08:22:06.617Z,38.23
2023-05-10T08:23:06.688Z,38.31
2023-05-10T08:24:06.654Z,38.53
2023-05-10T08:25:06.675Z,38.74
2023-05-10T08:26:06.693Z,38.51
2023-05-10T08:27:06.716Z,38.75
2023-05-10T08:28:06.681Z,38.67
2023-05-10T08:29:06.732Z,38.66
2023-05-10T08:30:06.752Z,38.59
2023-05-10T08:31:06.879Z,38.58
2023-05-10T08:32:06.813Z,38.26
2023-05-10T08:33:06.797Z,38.44
2023-05-10T08:34:06.793Z,38.57
2023-05-10T08:35:06.859Z,38.26
2023-05-10T08:36:06.897Z,38.12
2023-05-10T08:37:06.943Z,38.29
2023-05-10T08:38:06.980Z,38.29
2023-05-10T08:39:13.548Z,38.25
2023-05-10T08:40:08.669Z,38.36
2023-05-10T08:41:07.237Z,38.28
2023-05-10T08:42:07.187Z,38.38
2023-05-10T08:43:07.806Z,38.06
2023-05-10T08:44:07.132Z,37.88
2023-05-10T08:45:07.392Z,37.66
2023-05-10T08:46:07.044Z,37.63
2023-05-10T08:47:07.110Z,37.58
2023-05-10T08:48:07.074Z,37.52
2023-05-10T08:49:07.027Z,37.31
2023-05-10T08:50:07.003Z,37.19
2023-05-10T08:51:07.046Z,36.98
2023-05-10T08:52:07.089Z,36.91
2023-05-10T08:53:07.150Z,36.86
2023-05-10T08:54:07.212Z,36.74
2023-05-10T08:55:07.305Z,36.74
2023-05-10T08:56:07.277Z,36.71
2023-05-10T08:57:07.326Z,36.71
2023-05-10T08:58:07.402Z,36.60
2023-05-10T08:59:07.381Z,36.65
2023-05-10T09:00:07.435Z,36.57
2023-05-10T09:01:07.589Z,36.63
2023-05-10T09:02:07.538Z,36.60
2023-05-10T09:03:07.614Z,36.61
2023-05-10T09:04:07.701Z,36.69
2023-05-10T09:05:07.620Z,36.81
2023-05-10T09:06:07.586Z,36.75
2023-05-10T09:07:07.635Z,36.80
2023-05-10T09:08:07.689Z,36.71
2023-05-10T09:09:07.651Z,36.61
2023-05-10T09:10:07.905Z,36.63
2023-05-10T09:11:07.758Z,36.65
2023-05-10T09:12:07.773Z,36.55
2023-05-10T09:13:07.923Z,36.67
2023-05-10T09:14:07.844Z,36.58
2023-05-10T09:15:07.922Z,36.51
2023-05-10T09:16:20.263Z,36.48
2023-05-10T09:17:08.958Z,36.45
2023-05-10T09:18:07.928Z,36.45
2023-05-10T09:19:08.024Z,36.39
2023-05-10T09:20:07.894Z,36.42
2023-05-10T09:21:07.926Z,36.42
2023-05-10T09:22:07.895Z,36.37
2023-05-10T09:23:07.887Z,36.39
2023-05-10T09:24:07.916Z,36.40
2023-05-10T09:25:08.419Z,36.50
2023-05-10T09:26:07.933Z,36.28
2023-05-10T09:27:07.999Z,36.94
2023-05-10T09:28:07.835Z,36.94
2023-05-10T09:29:07.835Z,37.25
2023-05-10T09:30:07.928Z,37.18
2023-05-10T09:31:07.946Z,37.29
2023-05-10T09:32:07.818Z,37.30
2023-05-10T09:33:07.884Z,37.36
2023-05-10T09:34:07.870Z,37.52
2023-05-10T09:35:07.911Z,37.79
2023-05-10T09:36:08.415Z,37.75
2023-05-10T09:37:07.921Z,37.87
2023-05-10T09:38:07.963Z,38.32
2023-05-10T09:39:08.026Z,38.36
2023-05-10T09:40:08.005Z,38.50
2023-05-10T09:41:08.040Z,38.44
2023-05-10T09:42:08.090Z,39.00
2023-05-10T09:43:08.160Z,38.59
2023-05-10T09:44:08.174Z,38.76
2023-05-10T09:45:08.224Z,39.16
2023-05-10T09:46:08.445Z,39.16
2023-05-10T09:47:08.369Z,38.95
2023-05-10T09:48:08.372Z,38.99
2023-05-10T09:49:08.362Z,38.96
2023-05-10T09:50:08.402Z,38.88
2023-05-10T09:51:08.453Z,38.76
2023-05-10T09:52:08.489Z,38.73
2023-05-10T09:53:08.490Z,38.79
2023-05-10T09:54:08.560Z,38.71
2023-05-10T09:55:08.625Z,38.68
2023-05-10T09:56:08.657Z,38.72
2023-05-10T09:57:08.725Z,38.87
2023-05-10T09:58:08.772Z,38.76
2023-05-10T09:59:08.845Z,38.74
2023-05-10T10:00:08.864Z,38.69
2023-05-10T10:01:08.974Z,38.66
2023-05-10T10:02:08.965Z,38.63
2023-05-10T10:03:09.036Z,39.35
2023-05-10T10:04:09.075Z,38.81
2023-05-10T10:05:09.231Z,38.68
2023-05-10T10:06:18.772Z,38.71
2023-05-10T10:07:10.148Z,38.47
2023-05-10T10:08:09.141Z,38.33
2023-05-10T10:09:09.126Z,38.29
2023-05-10T10:10:09.126Z,38.06
2023-05-10T10:11:09.128Z,38.11
2023-05-10T10:12:09.098Z,38.11
2023-05-10T10:13:09.123Z,38.18
2023-05-10T10:14:09.115Z,38.26
2023-05-10T10:15:09.083Z,38.23
2023-05-10T10:16:09.488Z,38.38
2023-05-10T10:17:09.273Z,37.89
2023-05-10T10:18:09.264Z,37.68
2023-05-10T10:19:09.175Z,37.09
2023-05-10T10:20:11.715Z,36.42
2023-05-10T10:21:09.443Z,37.08
2023-05-10T10:22:09.221Z,37.45
2023-05-10T10:23:09.216Z,36.59
2023-05-10T10:24:09.188Z,36.17
2023-05-10T10:25:09.209Z,36.05
2023-05-10T10:26:09.482Z,36.13
2023-05-10T10:27:09.161Z,35.60
2023-05-10T10:28:09.153Z,35.64
2023-05-10T10:29:09.171Z,35.30
2023-05-10T10:30:09.155Z,35.31
2023-05-10T10:31:09.190Z,35.21
2023-05-10T10:32:09.159Z,35.54
2023-05-10T10:33:20.203Z,35.30
2023-05-10T10:34:10.140Z,35.37
2023-05-10T10:35:09.133Z,35.31
2023-05-10T10:36:09.485Z,35.51
2023-05-10T10:37:09.103Z,36.62
2023-05-10T10:38:09.091Z,37.75
2023-05-10T10:39:09.097Z,37.79
2023-05-10T10:40:09.116Z,37.80
2023-05-10T10:41:09.074Z,38.18
2023-05-10T10:42:09.083Z,38.01
2023-05-10T10:43:09.098Z,38.17
2023-05-10T10:44:09.064Z,38.17
2023-05-10T10:45:09.091Z,38.28
2023-05-10T10:46:09.110Z,37.81
2023-05-10T10:47:09.231Z,37.63
2023-05-10T10:48:09.259Z,37.47
2023-05-10T10:49:09.180Z,37.24
2023-05-10T10:50:09.179Z,37.11
2023-05-10T10:51:10.691Z,37.00
2023-05-10T10:52:09.199Z,36.95
2023-05-10T10:53:09.260Z,36.76
2023-05-10T10:54:09.225Z,36.63
2023-05-10T10:55:09.320Z,36.51
2023-05-10T10:56:09.207Z,36.58
2023-05-10T10:57:09.177Z,36.42
2023-05-10T10:58:09.179Z,36.31
2023-05-10T10:59:09.174Z,36.20
2023-05-10T11:00:09.161Z,36.31
2023-05-10T11:01:09.199Z,36.37
2023-05-10T11:02:09.142Z,36.60
2023-05-10T11:03:09.166Z,36.91
2023-05-10T11:04:09.189Z,39.84
2023-05-10T11:05:09.100Z,38.93
2023-05-10T11:06:09.122Z,37.84
2023-05-10T11:07:09.100Z,37.76
2023-05-10T11:08:09.104Z,37.73
2023-05-10T11:09:09.089Z,37.12
2023-05-10T11:10:09.071Z,36.97
2023-05-10T11:11:09.078Z,37.51
2023-05-10T11:12:09.059Z,37.42
2023-05-10T11:13:09.078Z,38.29
2023-05-10T11:14:09.066Z,38.19
2023-05-10T11:15:09.073Z,38.34
2023-05-10T11:16:09.515Z,38.61
2023-05-10T11:17:09.105Z,38.89
2023-05-10T11:18:09.093Z,38.82
2023-05-10T11:19:09.132Z,38.52
2023-05-10T11:20:09.019Z,38.11
2023-05-10T11:21:09.007Z,38.17
2023-05-10T11:22:09.009Z,37.97
2023-05-10T11:23:09.005Z,37.91
2023-05-10T11:24:08.979Z,37.81
2023-05-10T11:25:08.982Z,37.72
2023-05-10T11:26:08.962Z,37.68
2023-05-10T11:27:08.955Z,37.67
2023-05-10T11:28:08.954Z,37.66
2023-05-10T11:29:08.958Z,37.61
2023-05-10T11:30:08.981Z,37.57
2023-05-10T11:31:08.953Z,37.48
2023-05-10T11:32:08.920Z,37.48
2023-05-10T11:33:08.956Z,37.40
2023-05-10T11:34:08.942Z,37.40
2023-05-10T11:35:08.914Z,37.22
2023-05-10T11:36:08.897Z,37.23
2023-05-10T11:37:08.887Z,37.15
2023-05-10T11:38:08.902Z,37.17
2023-05-10T11:39:08.897Z,37.10
2023-05-10T11:40:08.888Z,37.03
2023-05-10T11:41:08.883Z,36.97
2023-05-10T11:42:08.882Z,36.89
2023-05-10T11:43:08.898Z,36.83
2023-05-10T11:44:08.901Z,36.84
2023-05-10T11:45:08.942Z,36.86
2023-05-10T11:46:09.004Z,36.78
2023-05-10T11:47:08.987Z,36.71
2023-05-10T11:48:09.080Z,36.61
2023-05-10T11:49:09.038Z,36.61
2023-05-10T11:50:09.072Z,36.57
2023-05-10T11:51:09.153Z,36.55
2023-05-10T11:52:09.146Z,36.48
2023-05-10T11:53:09.168Z,36.54
2023-05-10T11:54:09.189Z,36.40
2023-05-10T11:55:09.236Z,36.51
2023-05-10T11:56:09.275Z,36.44
2023-05-10T11:57:09.333Z,36.36
2023-05-10T11:58:09.407Z,36.31
2023-05-10T11:59:09.499Z,36.35
2023-05-10T12:00:09.446Z,36.26
2023-05-10T12:01:09.467Z,36.26
2023-05-10T12:02:09.499Z,36.31
2023-05-10T12:03:09.606Z,36.19
2023-05-10T12:04:09.803Z,36.17
2023-05-10T12:05:09.679Z,36.24
2023-05-10T12:06:09.981Z,36.17
2023-05-10T12:07:09.685Z,36.14
2023-05-10T12:08:09.691Z,36.10
2023-05-10T12:09:09.740Z,36.13
2023-05-10T12:10:09.766Z,36.10
2023-05-10T12:11:10.004Z,36.06
2023-05-10T12:12:09.851Z,36.05
2023-05-10T12:13:09.863Z,36.05
2023-05-10T12:14:09.898Z,36.06
2023-05-10T12:15:09.941Z,36.02
2023-05-10T12:16:09.997Z,35.99
2023-05-10T12:17:09.957Z,35.88
2023-05-10T12:18:10.050Z,35.89
2023-05-10T12:19:10.207Z,35.87
2023-05-10T12:20:09.976Z,35.78
2023-05-10T12:21:10.036Z,35.73
2023-05-10T12:22:09.985Z,35.78
2023-05-10T12:23:10.054Z,35.70
2023-05-10T12:24:10.001Z,35.67
2023-05-10T12:25:10.012Z,35.78
2023-05-10T12:26:10.049Z,35.77
2023-05-10T12:27:10.059Z,35.74
2023-05-10T12:28:10.091Z,35.64
2023-05-10T12:29:10.092Z,35.61
2023-05-10T12:30:10.097Z,35.58
2023-05-10T12:31:10.128Z,35.58
2023-05-10T12:32:10.194Z,35.61
2023-05-10T12:33:10.256Z,35.69
2023-05-10T12:34:10.229Z,35.68
2023-05-10T12:35:10.282Z,35.65
2023-05-10T12:36:10.318Z,35.58
2023-05-10T12:37:10.340Z,35.58
2023-05-10T12:38:10.437Z,35.66
2023-05-10T12:39:10.391Z,35.65
2023-05-10T12:40:10.468Z,35.65
2023-05-10T12:41:10.579Z,35.54
2023-05-10T12:42:10.552Z,35.57
2023-05-10T12:43:10.523Z,35.53
2023-05-10T12:44:10.495Z,35.53
2023-05-10T12:45:10.519Z,35.42
2023-05-10T12:46:10.574Z,35.49
2023-05-10T12:47:10.553Z,35.43
2023-05-10T12:48:10.544Z,35.40
2023-05-10T12:49:10.559Z,35.41
2023-05-10T12:50:10.588Z,35.40
2023-05-10T12:51:10.574Z,35.40
2023-05-10T12:52:10.553Z,35.30
2023-05-10T12:53:10.559Z,35.27